Tasman Mariner — VRWW8 — position and weather

sailwx.info

Track history (hours):
 
Tides and Currents Weather Stations Pressure Air Temp Water Temp Dewpoint Dewpoint Depression Visibility Wind Speed Wind Dir Waves Ship Positions

Tasman Mariner

Last reported at 2014-Oct-31 21:33 UTC. Time now 2014-Oct-31 22:14 UTC.
Position S 32°54' E 151°46'.

Length 184 m; beam 27 m; draft 10 m.

Type: Cargo ship. MMSI: 477860000.

Date/timePositionNaut miles runAvg speedWind from/ knotsBaromVisibWave heightAir tempDewpointWater temp
2014-Oct-31 21:33S 32°54' E 151°46'0 0.0
2014-Oct-31 20:33S 32°54' E 151°46'0 0.0
2014-Oct-31 19:33S 32°54' E 151°46'0 0.0
2014-Oct-31 18:33S 32°54' E 151°46'0 0.0
2014-Oct-31 17:33S 32°54' E 151°46'0 0.0
2014-Oct-31 16:33S 32°54' E 151°46'0 0.0
2014-Oct-31 15:33S 32°54' E 151°46'0 0.0
2014-Oct-31 14:33S 32°54' E 151°46'0 0.0
2014-Oct-31 13:33S 32°54' E 151°46'0 0.0
2014-Oct-31 12:33S 32°54' E 151°46'0 0.0
2014-Oct-31 11:33S 32°54' E 151°46'0 0.0
2014-Oct-31 10:33S 32°54' E 151°46'0 0.0
2014-Oct-31 09:33S 32°54' E 151°46'2 2.0
2014-Oct-31 08:33S 32°55' E 151°47'7 7.2
2014-Oct-31 07:33S 33°01' E 151°53'5 4.9
2014-Oct-31 06:34S 33°05' E 151°53'1 0.8
2014-Oct-31 05:33S 33°06' E 151°53'6 6.5
2014-Oct-31 04:33S 33°12' E 151°54'4 3.9
2014-Oct-31 03:33S 33°16' E 151°53'4 4.3
2014-Oct-31 02:33S 33°20' E 151°52'5 4.6
2014-Oct-31 01:33S 33°24' E 151°49'5 5.1
2014-Oct-31 00:33S 33°29' E 151°46'5 5.4
2014-Oct-30 23:34S 33°34' E 151°43'5 5.2
2014-Oct-30 22:33S 33°38' E 151°40'1 1.3
2014-Oct-30 21:32S 33°38' E 151°42'2 2.2
2014-Oct-30 20:33S 33°37' E 151°44'2 1.9
2014-Oct-30 19:22S 33°35' E 151°45'2 1.8
2014-Oct-30 18:32S 33°34' E 151°46'2 1.7
2014-Oct-30 17:32S 33°32' E 151°47'1 0.6
2014-Oct-30 16:33S 33°32' E 151°47'5 5.2
2014-Oct-30 15:33S 33°37' E 151°45'5 5.5
2014-Oct-30 14:33S 33°42' E 151°44'1 0.7
2014-Oct-30 13:33S 33°41' E 151°44'2 1.6
2014-Oct-30 12:33S 33°40' E 151°46'3 2.8
2014-Oct-30 11:33S 33°42' E 151°43'2 1.8
2014-Oct-30 10:33S 33°43' E 151°42'2 2.0
2014-Oct-30 09:33S 33°41' E 151°43'2 2.4
2014-Oct-30 08:33S 33°39' E 151°44'2 2.4
2014-Oct-30 07:33S 33°37' E 151°46'2 2.3
2014-Oct-30 06:29S 33°36' E 151°48'4 4.2
2014-Oct-30 05:33S 33°32' E 151°46'1212.1
2014-Oct-30 04:34S 33°21' E 151°53'1211.8
2014-Oct-30 03:33S 33°11' E 151°60'1211.7
2014-Oct-30 02:33S 33°00' E 152°06'1211.9
2014-Oct-30 01:34S 32°51' E 152°16'1514.6
2014-Oct-30 00:33S 32°40' E 152°27'1616.4
2014-Oct-29 23:33S 32°27' E 152°39'24711.8
2014-Oct-29 02:33S 28°26' E 153°43'2215.4
2014-Oct-29 01:06S 28°04' E 153°43'916.2
2014-Oct-29 00:33S 27°55' E 153°43'1616.5
2014-Oct-28 23:33S 27°38' E 153°43'1717.0
2014-Oct-28 22:33S 27°21' E 153°43'1818.2
2014-Oct-28 21:33S 27°03' E 153°43'1313.4
2014-Oct-28 20:33S 26°50' E 153°45'1211.6
2014-Oct-28 19:32S 26°38' E 153°47'1212.6
2014-Oct-28 18:33S 26°26' E 153°50'1413.6
2014-Oct-28 17:33S 26°13' E 153°53'1413.6
2014-Oct-28 16:29S 25°59' E 153°56'5212.9
2014-Oct-28 12:30S 25°08' E 154°08'18711.6
2014-Oct-27 20:20S 22°05' E 154°49'910.9
2014-Oct-27 19:33S 21°56' E 154°51'  
Track history (hours):
 
Tides and Currents Weather Stations Pressure Air Temp Water Temp Dewpoint Dewpoint Depression Visibility Wind Speed Wind Dir Waves Ship Positions

Tasman Mariner

Last reported at 2014-Oct-31 21:33 UTC. Time now 2014-Oct-31 22:14 UTC.
Position S 32°54' E 151°46'.

Length 184 m; beam 27 m; draft 10 m.

Type: Cargo ship. MMSI: 477860000.

Date/timePositionNaut miles runAvg speedWind from/ knotsBaromVisibWave heightAir tempDewpointWater temp
2014-Oct-31 21:33S 32°54' E 151°46'0 0.0
2014-Oct-31 20:33S 32°54' E 151°46'0 0.0
2014-Oct-31 19:33S 32°54' E 151°46'0 0.0
2014-Oct-31 18:33S 32°54' E 151°46'0 0.0
2014-Oct-31 17:33S 32°54' E 151°46'0 0.0
2014-Oct-31 16:33S 32°54' E 151°46'0 0.0
2014-Oct-31 15:33S 32°54' E 151°46'0 0.0
2014-Oct-31 14:33S 32°54' E 151°46'0 0.0
2014-Oct-31 13:33S 32°54' E 151°46'0 0.0
2014-Oct-31 12:33S 32°54' E 151°46'0 0.0
2014-Oct-31 11:33S 32°54' E 151°46'0 0.0
2014-Oct-31 10:33S 32°54' E 151°46'0 0.0
2014-Oct-31 09:33S 32°54' E 151°46'2 2.0
2014-Oct-31 08:33S 32°55' E 151°47'7 7.2
2014-Oct-31 07:33S 33°01' E 151°53'5 4.9
2014-Oct-31 06:34S 33°05' E 151°53'1 0.8
2014-Oct-31 05:33S 33°06' E 151°53'6 6.5
2014-Oct-31 04:33S 33°12' E 151°54'4 3.9
2014-Oct-31 03:33S 33°16' E 151°53'4 4.3
2014-Oct-31 02:33S 33°20' E 151°52'5 4.6
2014-Oct-31 01:33S 33°24' E 151°49'5 5.1
2014-Oct-31 00:33S 33°29' E 151°46'5 5.4
2014-Oct-30 23:34S 33°34' E 151°43'5 5.2
2014-Oct-30 22:33S 33°38' E 151°40'1 1.3
2014-Oct-30 21:32S 33°38' E 151°42'2 2.2
2014-Oct-30 20:33S 33°37' E 151°44'2 1.9
2014-Oct-30 19:22S 33°35' E 151°45'2 1.8
2014-Oct-30 18:32S 33°34' E 151°46'2 1.7
2014-Oct-30 17:32S 33°32' E 151°47'1 0.6
2014-Oct-30 16:33S 33°32' E 151°47'5 5.2
2014-Oct-30 15:33S 33°37' E 151°45'5 5.5
2014-Oct-30 14:33S 33°42' E 151°44'1 0.7
2014-Oct-30 13:33S 33°41' E 151°44'2 1.6
2014-Oct-30 12:33S 33°40' E 151°46'3 2.8
2014-Oct-30 11:33S 33°42' E 151°43'2 1.8
2014-Oct-30 10:33S 33°43' E 151°42'2 2.0
2014-Oct-30 09:33S 33°41' E 151°43'2 2.4
2014-Oct-30 08:33S 33°39' E 151°44'2 2.4
2014-Oct-30 07:33S 33°37' E 151°46'2 2.3
2014-Oct-30 06:29S 33°36' E 151°48'4 4.2
2014-Oct-30 05:33S 33°32' E 151°46'1212.1
2014-Oct-30 04:34S 33°21' E 151°53'1211.8
2014-Oct-30 03:33S 33°11' E 151°60'1211.7
2014-Oct-30 02:33S 33°00' E 152°06'1211.9
2014-Oct-30 01:34S 32°51' E 152°16'1514.6
2014-Oct-30 00:33S 32°40' E 152°27'1616.4
2014-Oct-29 23:33S 32°27' E 152°39'24711.8
2014-Oct-29 02:33S 28°26' E 153°43'2215.4
2014-Oct-29 01:06S 28°04' E 153°43'916.2
2014-Oct-29 00:33S 27°55' E 153°43'1616.5
2014-Oct-28 23:33S 27°38' E 153°43'1717.0
2014-Oct-28 22:33S 27°21' E 153°43'1818.2
2014-Oct-28 21:33S 27°03' E 153°43'1313.4
2014-Oct-28 20:33S 26°50' E 153°45'1211.6
2014-Oct-28 19:32S 26°38' E 153°47'1212.6
2014-Oct-28 18:33S 26°26' E 153°50'1413.6
2014-Oct-28 17:33S 26°13' E 153°53'1413.6
2014-Oct-28 16:29S 25°59' E 153°56'5212.9
2014-Oct-28 12:30S 25°08' E 154°08'18711.6
2014-Oct-27 20:20S 22°05' E 154°49'910.9
2014-Oct-27 19:33S 21°56' E 154°51'  

Dump ship's entire track history